Soldier Pond, Maine
Current Conditions -  °F | °C
As of 2:53 PM on Friday 19 Dec 2014 (Local Time) from KFVE Reporting Station
Clear Clear  
Wind Chill:   Ceiling: Unl
Heat Index: 23°   Visibility: 10mi
Dew Point: 16°   Wind: 18mph
Humidity: 74%   Direction: 330°NNW
Pressure: 29.88"   Gusts: NA
Location:  47.16°N, 68.57°W
Report Text: KFVE 191953Z AUTO 33016KT 10SM CLR M05/M09 A2988 RMK AO2 SLP131 T10501089
Loading
Personal Weather Stations






























Interactive Weather Map New forecast layout! Learn more

10-Day Weather Forecast

Advertisements
Track Severe Weather on mobile